createdAt,value
2018-08-30T00:00:35.089Z,24
2018-08-30T00:01:40.563Z,24
2018-08-30T00:02:45.728Z,24
2018-08-30T00:03:50.748Z,24
2018-08-30T00:04:56.280Z,24
2018-08-30T00:06:01.210Z,24
2018-08-30T00:07:06.791Z,24
2018-08-30T00:08:12.033Z,24
2018-08-30T00:09:16.691Z,24
2018-08-30T00:10:21.942Z,24
2018-08-30T00:11:26.812Z,24
2018-08-30T00:12:32.508Z,24
2018-08-30T00:13:37.454Z,24
2018-08-30T00:14:42.886Z,24
2018-08-30T00:15:47.825Z,24
2018-08-30T00:16:52.132Z,24
2018-08-30T00:17:57.330Z,24
2018-08-30T00:19:02.384Z,24
2018-08-30T00:20:07.337Z,24
2018-08-30T00:21:11.960Z,24
2018-08-30T00:22:17.076Z,24
2018-08-30T00:23:21.982Z,24
2018-08-30T00:24:27.560Z,24
2018-08-30T00:25:33.003Z,24
2018-08-30T00:26:37.892Z,24
2018-08-30T00:27:43.734Z,24
2018-08-30T00:28:48.929Z,24
2018-08-30T00:29:54.132Z,24
2018-08-30T00:30:59.630Z,24
2018-08-30T00:32:04.802Z,24
2018-08-30T00:33:09.786Z,24
2018-08-30T00:34:14.923Z,24
2018-08-30T00:35:19.635Z,24
2018-08-30T00:37:44.721Z,24
2018-08-30T00:38:49.598Z,24
2018-08-30T00:39:55.068Z,24
2018-08-30T00:40:59.733Z,24
2018-08-30T00:42:04.708Z,24
2018-08-30T00:43:10.191Z,24
2018-08-30T00:44:15.067Z,24
2018-08-30T00:45:20.254Z,24
2018-08-30T00:46:40.610Z,24
2018-08-30T00:47:45.802Z,24
2018-08-30T00:48:51.642Z,24
2018-08-30T00:49:57.095Z,24
2018-08-30T00:51:02.251Z,24
2018-08-30T00:52:07.462Z,24
2018-08-30T00:53:12.975Z,24
2018-08-30T00:54:18.117Z,24
2018-08-30T00:55:22.993Z,24
2018-08-30T00:56:28.195Z,24
2018-08-30T00:57:34.035Z,24
2018-08-30T00:58:39.575Z,24
2018-08-30T00:59:44.277Z,24
2018-08-30T01:00:50.066Z,24
2018-08-30T01:01:55.256Z,24
2018-08-30T01:03:00.520Z,24
2018-08-30T01:04:05.935Z,24
2018-08-30T01:05:10.866Z,24
2018-08-30T01:06:16.025Z,24
2018-08-30T01:07:21.787Z,24
2018-08-30T01:08:27.023Z,24
2018-08-30T01:09:32.931Z,24
2018-08-30T01:10:37.803Z,24
2018-08-30T01:11:42.984Z,24
2018-08-30T01:12:48.179Z,24
2018-08-30T01:13:53.075Z,24
2018-08-30T01:14:58.019Z,24
2018-08-30T01:16:02.889Z,24
2018-08-30T01:17:08.347Z,24
2018-08-30T01:18:13.879Z,24
2018-08-30T01:19:19.776Z,24
2018-08-30T01:20:24.929Z,24
2018-08-30T01:21:30.796Z,24
2018-08-30T01:22:35.762Z,24
2018-08-30T01:23:41.197Z,24
2018-08-30T01:24:47.044Z,24
2018-08-30T01:25:51.930Z,24
2018-08-30T01:26:57.080Z,24
2018-08-30T01:28:02.814Z,24
2018-08-30T01:29:08.056Z,24
2018-08-30T01:30:13.575Z,24
2018-08-30T01:31:19.454Z,24
2018-08-30T01:32:24.608Z,24
2018-08-30T01:33:30.396Z,24
2018-08-30T01:34:35.655Z,24
2018-08-30T01:35:40.543Z,24
2018-08-30T01:36:45.623Z,24
2018-08-30T01:37:51.091Z,24
2018-08-30T01:38:56.260Z,24
2018-08-30T01:40:01.706Z,24
2018-08-30T01:41:06.395Z,24
2018-08-30T01:42:11.565Z,24
2018-08-30T01:43:17.303Z,24
2018-08-30T01:44:22.501Z,24
2018-08-30T01:45:27.790Z,24
2018-08-30T01:46:32.948Z,24
2018-08-30T01:47:38.428Z,24
2018-08-30T01:48:43.863Z,24
2018-08-30T01:49:49.075Z,24
2018-08-30T01:50:53.962Z,24
2018-08-30T01:51:59.416Z,24
2018-08-30T01:53:04.308Z,24
2018-08-30T01:54:09.472Z,24
2018-08-30T01:55:14.886Z,24
2018-08-30T01:56:20.028Z,24
2018-08-30T01:57:25.980Z,24
2018-08-30T01:58:31.430Z,24
2018-08-30T01:59:36.312Z,24
2018-08-30T02:00:42.009Z,24
2018-08-30T02:01:47.458Z,24
2018-08-30T02:02:52.682Z,24
2018-08-30T02:03:58.413Z,24
2018-08-30T02:05:03.873Z,24
2018-08-30T02:06:09.353Z,24
2018-08-30T02:07:14.765Z,24
2018-08-30T02:08:19.365Z,24
2018-08-30T02:10:45.063Z,24
2018-08-30T02:11:50.319Z,24
2018-08-30T02:12:55.309Z,24
2018-08-30T02:14:00.516Z,24
2018-08-30T02:15:05.660Z,24
2018-08-30T02:16:11.092Z,24
2018-08-30T02:17:16.258Z,24
2018-08-30T02:18:21.706Z,24
2018-08-30T02:19:27.680Z,24
2018-08-30T02:20:32.896Z,24
2018-08-30T02:21:38.763Z,24
2018-08-30T02:22:43.712Z,24
2018-08-30T02:23:48.866Z,24
2018-08-30T02:24:54.308Z,24
2018-08-30T02:25:59.321Z,24
2018-08-30T02:27:04.479Z,24
2018-08-30T02:28:09.740Z,24
2018-08-30T02:29:14.968Z,24
2018-08-30T02:30:20.142Z,24
2018-08-30T02:31:25.273Z,24
2018-08-30T02:32:30.182Z,24
2018-08-30T02:33:35.462Z,24
2018-08-30T02:34:40.905Z,24
2018-08-30T02:35:46.065Z,24
2018-08-30T02:36:51.468Z,24
2018-08-30T02:37:56.439Z,24
2018-08-30T02:39:01.318Z,24
2018-08-30T02:40:05.988Z,24
2018-08-30T02:41:10.906Z,24
2018-08-30T02:42:16.132Z,24
2018-08-30T02:43:21.585Z,24
2018-08-30T02:44:26.754Z,24
2018-08-30T02:45:32.485Z,24
2018-08-30T02:46:37.661Z,24
2018-08-30T02:47:42.533Z,24
2018-08-30T02:48:48.081Z,24
2018-08-30T02:49:53.616Z,24
2018-08-30T02:50:58.897Z,24
2018-08-30T02:52:04.122Z,24
2018-08-30T02:53:09.615Z,24
2018-08-30T02:54:15.120Z,24
2018-08-30T02:55:19.971Z,23.9
2018-08-30T02:56:25.399Z,24
2018-08-30T02:57:31.058Z,24
2018-08-30T02:58:36.495Z,24
2018-08-30T02:59:41.755Z,24
2018-08-30T03:00:47.454Z,24
2018-08-30T03:01:52.340Z,24
2018-08-30T03:02:57.627Z,24
2018-08-30T03:04:02.922Z,24
2018-08-30T03:05:08.396Z,24
2018-08-30T03:06:13.355Z,24
2018-08-30T03:07:18.808Z,24
2018-08-30T03:08:23.713Z,24
2018-08-30T03:09:29.375Z,24
2018-08-30T03:10:34.368Z,24
2018-08-30T03:11:39.942Z,24
2018-08-30T03:12:45.359Z,24
2018-08-30T03:13:50.012Z,23.9
2018-08-30T03:14:55.243Z,23.9
2018-08-30T03:16:00.255Z,23.9
2018-08-30T03:17:04.652Z,23.9
2018-08-30T03:18:10.170Z,23.9
2018-08-30T03:19:15.500Z,24
2018-08-30T03:20:20.761Z,23.9
2018-08-30T03:21:26.415Z,23.9
2018-08-30T03:22:31.417Z,23.9
2018-08-30T03:23:36.686Z,23.9
2018-08-30T03:24:42.471Z,23.9
2018-08-30T03:25:47.771Z,24
2018-08-30T03:26:52.448Z,23.9
2018-08-30T03:27:57.786Z,23.9
2018-08-30T03:29:02.527Z,23.9
2018-08-30T03:30:08.187Z,23.9
2018-08-30T03:31:14.866Z,23.9
2018-08-30T03:32:20.537Z,23.9
2018-08-30T03:33:25.880Z,23.9
2018-08-30T03:34:31.997Z,23.9
2018-08-30T03:35:36.948Z,23.9
2018-08-30T03:36:42.392Z,23.9
2018-08-30T03:37:47.666Z,23.9
2018-08-30T03:38:52.950Z,23.9
2018-08-30T03:39:58.483Z,23.9
2018-08-30T03:41:03.759Z,23.9
2018-08-30T03:42:09.059Z,23.9
2018-08-30T03:43:14.614Z,23.9
2018-08-30T03:44:19.913Z,23.9
2018-08-30T03:46:45.037Z,23.9
2018-08-30T03:47:50.759Z,23.9
2018-08-30T03:48:56.285Z,23.9
2018-08-30T03:50:01.883Z,23.9
2018-08-30T03:51:06.297Z,23.9
2018-08-30T03:52:11.862Z,23.9
2018-08-30T03:53:17.201Z,23.9
2018-08-30T03:54:22.832Z,23.9
2018-08-30T03:55:28.255Z,23.9
2018-08-30T03:56:33.561Z,23.9
2018-08-30T03:57:38.599Z,23.9
2018-08-30T03:58:43.901Z,23.9
2018-08-30T03:59:49.219Z,23.9
2018-08-30T04:00:54.269Z,23.9
2018-08-30T04:01:59.310Z,23.9
2018-08-30T04:03:04.860Z,23.8
2018-08-30T04:04:09.883Z,23.7
2018-08-30T04:05:15.451Z,23.6
2018-08-30T04:06:21.001Z,23.5
2018-08-30T04:07:26.617Z,23.4
2018-08-30T04:08:32.183Z,23.4
2018-08-30T04:09:37.834Z,23.3
2018-08-30T04:10:43.135Z,23.2
2018-08-30T04:11:48.135Z,23.2
2018-08-30T04:12:53.103Z,23.2
2018-08-30T04:13:58.353Z,23.1
2018-08-30T04:15:03.917Z,23.1
2018-08-30T04:16:09.076Z,23
2018-08-30T04:17:14.049Z,23
2018-08-30T04:18:19.364Z,23
2018-08-30T04:19:24.056Z,23
2018-08-30T04:20:29.045Z,22.9
2018-08-30T04:21:34.313Z,22.9
2018-08-30T04:22:39.859Z,22.9
2018-08-30T04:23:45.207Z,22.8
2018-08-30T04:24:50.482Z,22.8
2018-08-30T04:25:55.796Z,22.7
2018-08-30T04:27:01.156Z,22.7
2018-08-30T04:28:06.926Z,22.7
2018-08-30T04:29:12.197Z,22.7
2018-08-30T04:30:16.904Z,22.6
2018-08-30T04:31:22.458Z,22.6
2018-08-30T04:32:27.652Z,22.6
2018-08-30T04:33:33.464Z,22.6
2018-08-30T04:34:38.830Z,22.6
2018-08-30T04:35:44.091Z,22.6
2018-08-30T04:36:49.972Z,22.5
2018-08-30T04:37:55.447Z,22.5
2018-08-30T04:39:00.945Z,22.5
2018-08-30T04:40:06.177Z,22.5
2018-08-30T04:41:11.345Z,22.4
2018-08-30T04:42:16.918Z,22.4
2018-08-30T04:43:22.484Z,22.4
2018-08-30T04:44:27.698Z,22.4
2018-08-30T04:45:33.394Z,22.3
2018-08-30T04:46:38.352Z,22.3
2018-08-30T04:47:43.793Z,22.3
2018-08-30T04:48:48.881Z,22.3
2018-08-30T04:49:53.795Z,22.3
2018-08-30T04:50:59.069Z,22.2
2018-08-30T04:52:03.960Z,22.2
2018-08-30T04:53:08.938Z,22.2
2018-08-30T04:54:14.385Z,22.1
2018-08-30T04:55:19.567Z,22.1
2018-08-30T04:56:23.915Z,22.1
2018-08-30T04:57:29.597Z,22.1
2018-08-30T04:58:34.275Z,22.1
2018-08-30T04:59:39.435Z,22.1
2018-08-30T05:00:44.574Z,22.1
2018-08-30T05:01:49.693Z,22
2018-08-30T05:02:55.223Z,22
2018-08-30T05:04:15.839Z,22
2018-08-30T05:05:21.308Z,22
2018-08-30T05:06:26.516Z,22
2018-08-30T05:07:32.024Z,21.9
2018-08-30T05:08:37.222Z,21.9
2018-08-30T05:09:42.921Z,21.9
2018-08-30T05:10:48.449Z,21.9
2018-08-30T05:11:53.625Z,21.9
2018-08-30T05:12:58.758Z,21.9
2018-08-30T05:14:03.361Z,21.9
2018-08-30T05:15:08.526Z,21.9
2018-08-30T05:16:13.979Z,21.8
2018-08-30T05:17:18.918Z,21.8
2018-08-30T05:18:23.233Z,21.8
2018-08-30T05:19:43.603Z,21.8
2018-08-30T05:20:48.485Z,21.8
2018-08-30T05:21:54.333Z,21.8
2018-08-30T05:22:59.553Z,21.7
2018-08-30T05:24:03.898Z,21.7
2018-08-30T05:25:09.025Z,21.7
2018-08-30T05:26:14.512Z,21.7
2018-08-30T05:27:19.658Z,21.7
2018-08-30T05:28:25.214Z,21.7
2018-08-30T05:29:30.416Z,21.7
2018-08-30T05:30:36.012Z,21.7
2018-08-30T05:31:40.599Z,21.6
2018-08-30T05:32:45.466Z,21.6
2018-08-30T05:33:50.798Z,21.6
2018-08-30T05:34:55.963Z,21.6
2018-08-30T05:36:01.127Z,21.6
2018-08-30T05:37:06.299Z,21.6
2018-08-30T05:38:11.802Z,21.6
2018-08-30T05:39:16.669Z,21.6
2018-08-30T05:40:22.158Z,21.6
2018-08-30T05:41:27.621Z,21.6
2018-08-30T05:42:33.305Z,21.5
2018-08-30T05:43:38.206Z,21.5
2018-08-30T05:44:43.411Z,21.5
2018-08-30T05:45:49.620Z,21.5
2018-08-30T05:46:54.823Z,21.5
2018-08-30T05:47:59.750Z,21.5
2018-08-30T05:49:05.144Z,21.5
2018-08-30T05:50:10.509Z,21.5
2018-08-30T05:51:15.416Z,21.5
2018-08-30T05:52:20.821Z,21.4
2018-08-30T05:53:26.075Z,21.4
2018-08-30T05:54:31.562Z,21.4
2018-08-30T05:55:36.708Z,21.4
2018-08-30T05:56:42.387Z,21.4
2018-08-30T05:57:47.675Z,21.4
2018-08-30T05:58:52.841Z,21.4
2018-08-30T05:59:58.345Z,21.4
2018-08-30T06:01:03.812Z,21.4
2018-08-30T06:02:08.975Z,21.4
2018-08-30T06:03:13.078Z,21.4
2018-08-30T06:04:18.526Z,21.3
2018-08-30T06:05:23.756Z,21.3
2018-08-30T06:06:29.172Z,21.3
2018-08-30T06:07:34.070Z,21.3
2018-08-30T06:08:39.218Z,21.3
2018-08-30T06:09:44.793Z,21.3
2018-08-30T06:10:50.254Z,21.3
2018-08-30T06:11:55.155Z,21.3
2018-08-30T06:13:00.913Z,21.3
2018-08-30T06:14:06.049Z,21.2
2018-08-30T06:15:11.599Z,21.2
2018-08-30T06:16:17.363Z,21.3
2018-08-30T06:17:22.807Z,21.2
2018-08-30T06:18:28.429Z,21.2
2018-08-30T06:19:33.998Z,21.2
2018-08-30T06:20:39.180Z,21.2
2018-08-30T06:21:44.883Z,21.2
2018-08-30T06:22:50.127Z,21.2
2018-08-30T06:23:55.325Z,21.2
2018-08-30T06:25:00.505Z,21.2
2018-08-30T06:26:05.109Z,21.1
2018-08-30T06:27:10.367Z,21.1
2018-08-30T06:28:15.796Z,21.2
2018-08-30T06:29:20.970Z,21.2
2018-08-30T06:30:27.075Z,21.1
2018-08-30T06:31:32.514Z,21.1
2018-08-30T06:32:37.755Z,21.2
2018-08-30T06:33:43.271Z,21.1
2018-08-30T06:34:49.004Z,21.1
2018-08-30T06:35:54.985Z,21.1
2018-08-30T06:37:00.394Z,21.1
2018-08-30T06:38:05.553Z,21.1
2018-08-30T06:39:10.715Z,21.1
2018-08-30T06:40:16.451Z,21.1
2018-08-30T06:41:21.267Z,21.1
2018-08-30T06:42:27.275Z,21.1
2018-08-30T06:43:31.927Z,21.1
2018-08-30T06:44:36.812Z,21.1
2018-08-30T06:45:42.220Z,21.1
2018-08-30T06:46:47.702Z,21
2018-08-30T06:47:52.577Z,21
2018-08-30T06:48:58.507Z,21
2018-08-30T06:50:04.882Z,21
2018-08-30T06:51:10.380Z,21
2018-08-30T06:52:15.805Z,21
2018-08-30T06:53:20.955Z,21
2018-08-30T06:54:26.889Z,21
2018-08-30T06:55:32.087Z,21
2018-08-30T06:56:37.726Z,21
2018-08-30T06:57:43.218Z,21
2018-08-30T06:58:48.893Z,21
2018-08-30T06:59:54.059Z,21
2018-08-30T07:00:59.603Z,21
2018-08-30T07:02:04.945Z,20.9
2018-08-30T07:03:10.426Z,20.9
2018-08-30T07:04:16.151Z,20.9
2018-08-30T07:05:22.474Z,20.9
2018-08-30T07:06:28.214Z,20.9
2018-08-30T07:07:33.081Z,20.9
2018-08-30T07:08:38.294Z,20.9
2018-08-30T07:09:43.435Z,20.9
2018-08-30T07:10:48.585Z,20.9
2018-08-30T07:11:53.808Z,20.9
2018-08-30T07:12:59.422Z,20.9
2018-08-30T07:14:04.570Z,20.9
2018-08-30T07:15:09.787Z,20.9
2018-08-30T07:16:14.748Z,20.9
2018-08-30T07:17:19.948Z,20.9
2018-08-30T07:19:45.566Z,20.9
2018-08-30T07:20:50.489Z,20.9
2018-08-30T07:21:55.923Z,20.9
2018-08-30T07:23:01.080Z,20.9
2018-08-30T07:24:06.285Z,20.8
2018-08-30T07:25:12.065Z,20.9
2018-08-30T07:26:16.944Z,20.9
2018-08-30T07:27:22.140Z,20.8
2018-08-30T07:28:42.461Z,20.9
2018-08-30T07:29:47.638Z,20.8
2018-08-30T07:30:53.173Z,20.8
2018-08-30T07:31:58.028Z,20.8
2018-08-30T07:33:03.185Z,20.8
2018-08-30T07:34:08.798Z,20.9
2018-08-30T07:35:14.667Z,20.9
2018-08-30T07:36:20.112Z,20.9
2018-08-30T07:37:25.656Z,20.8
2018-08-30T07:38:31.134Z,20.8
2018-08-30T07:39:37.090Z,20.8
2018-08-30T07:40:42.248Z,20.8
2018-08-30T07:41:47.151Z,20.8
2018-08-30T07:42:52.095Z,20.8
2018-08-30T07:43:57.282Z,20.8
2018-08-30T07:45:02.962Z,20.8
2018-08-30T07:46:07.526Z,20.8
2018-08-30T07:47:13.049Z,20.8
2018-08-30T07:48:18.228Z,20.8
2018-08-30T07:49:23.533Z,20.8
2018-08-30T07:50:28.486Z,20.9
2018-08-30T07:51:33.926Z,20.9
2018-08-30T07:52:39.085Z,20.9
2018-08-30T07:53:43.972Z,21
2018-08-30T07:54:49.147Z,21
2018-08-30T07:55:54.097Z,21
2018-08-30T07:56:59.247Z,21
2018-08-30T07:58:04.506Z,21
2018-08-30T07:59:09.716Z,21
2018-08-30T08:00:14.877Z,21
2018-08-30T08:01:19.716Z,21
2018-08-30T08:02:24.639Z,21.1
2018-08-30T08:03:30.482Z,21.1
2018-08-30T08:04:35.374Z,21.1
2018-08-30T08:05:41.075Z,21.1
2018-08-30T08:06:46.520Z,21.1
2018-08-30T08:07:51.684Z,21.1
2018-08-30T08:08:56.917Z,21.2
2018-08-30T08:10:02.324Z,21.2
2018-08-30T08:11:07.534Z,21.2
2018-08-30T08:12:12.827Z,21.2
2018-08-30T08:13:17.733Z,21.2
2018-08-30T08:14:23.215Z,21.2
2018-08-30T08:15:28.346Z,21.2
2018-08-30T08:16:33.559Z,21.2
2018-08-30T08:17:38.724Z,21.3
2018-08-30T08:18:43.891Z,21.3
2018-08-30T08:19:49.421Z,21.3
2018-08-30T08:20:54.885Z,21.3
2018-08-30T08:22:00.134Z,21.3
2018-08-30T08:23:04.720Z,21.3
2018-08-30T08:24:09.633Z,21.3
2018-08-30T08:25:15.149Z,21.3
2018-08-30T08:26:20.827Z,21.3
2018-08-30T08:27:26.444Z,21.4
2018-08-30T08:28:31.889Z,21.4
2018-08-30T08:29:36.771Z,21.4
2018-08-30T08:30:42.048Z,21.4
2018-08-30T08:31:47.246Z,21.4
2018-08-30T08:32:52.702Z,21.4
2018-08-30T08:33:58.227Z,21.4
2018-08-30T08:35:02.832Z,21.4
2018-08-30T08:36:07.138Z,21.4
2018-08-30T08:37:12.837Z,21.5
2018-08-30T08:38:18.003Z,21.5
2018-08-30T08:39:23.152Z,21.5
2018-08-30T08:40:42.985Z,21.5
2018-08-30T08:41:48.155Z,21.5
2018-08-30T08:42:53.980Z,21.5
2018-08-30T08:43:58.852Z,21.5
2018-08-30T08:45:04.330Z,21.5
2018-08-30T08:46:10.158Z,21.5
2018-08-30T08:47:15.023Z,21.5
2018-08-30T08:48:20.488Z,21.5
2018-08-30T08:49:40.601Z,21.5
2018-08-30T08:50:46.041Z,21.5
2018-08-30T08:51:50.864Z,21.5
2018-08-30T08:52:55.531Z,21.6
2018-08-30T08:54:00.707Z,21.6
2018-08-30T08:55:05.365Z,21.6
2018-08-30T08:56:10.807Z,21.6
2018-08-30T08:57:15.697Z,21.6
2018-08-30T08:58:21.110Z,21.6
2018-08-30T08:59:25.969Z,21.6
2018-08-30T09:00:31.907Z,21.6
2018-08-30T09:01:36.793Z,21.6
2018-08-30T09:02:41.968Z,21.6
2018-08-30T09:03:47.840Z,21.6
2018-08-30T09:04:53.271Z,21.6
2018-08-30T09:05:58.136Z,21.7
2018-08-30T09:07:03.621Z,21.7
2018-08-30T09:08:09.063Z,21.7
2018-08-30T09:09:14.232Z,21.7
2018-08-30T09:10:19.936Z,21.7
2018-08-30T09:11:25.093Z,21.7
2018-08-30T09:12:30.214Z,21.7
2018-08-30T09:13:35.725Z,21.7
2018-08-30T09:14:41.320Z,21.8
2018-08-30T09:15:47.032Z,21.8
2018-08-30T09:16:52.474Z,21.8
2018-08-30T09:17:57.710Z,21.8
2018-08-30T09:19:02.907Z,21.8
2018-08-30T09:20:08.354Z,21.8
2018-08-30T09:21:13.574Z,21.8
2018-08-30T09:22:19.319Z,21.8
2018-08-30T09:23:24.763Z,21.8
2018-08-30T09:24:30.338Z,21.8
2018-08-30T09:25:35.779Z,21.9
2018-08-30T09:26:41.220Z,21.9
2018-08-30T09:27:47.226Z,21.9
2018-08-30T09:28:52.790Z,21.9
2018-08-30T09:29:57.937Z,21.9
2018-08-30T09:31:03.511Z,21.9
2018-08-30T09:32:09.107Z,21.9
2018-08-30T09:33:14.284Z,21.9
2018-08-30T09:34:19.141Z,21.9
2018-08-30T09:35:24.320Z,21.9
2018-08-30T09:36:29.827Z,21.9
2018-08-30T09:37:35.273Z,21.9
2018-08-30T09:38:40.555Z,21.9
2018-08-30T09:39:46.356Z,21.9
2018-08-30T09:40:52.207Z,21.9
2018-08-30T09:41:57.366Z,21.9
2018-08-30T09:43:02.515Z,21.9
2018-08-30T09:44:07.669Z,21.9
2018-08-30T09:45:12.820Z,21.9
2018-08-30T09:46:18.354Z,21.9
2018-08-30T09:47:23.789Z,21.9
2018-08-30T09:48:29.782Z,21.9
2018-08-30T09:49:34.736Z,21.9
2018-08-30T09:50:39.652Z,21.9
2018-08-30T09:51:45.432Z,21.9
2018-08-30T09:52:50.594Z,21.9
2018-08-30T09:53:56.045Z,22
2018-08-30T09:55:01.281Z,22
2018-08-30T09:56:06.843Z,22
2018-08-30T09:57:11.501Z,22
2018-08-30T09:58:18.250Z,22
2018-08-30T09:59:23.142Z,22
2018-08-30T10:00:28.553Z,22
2018-08-30T10:01:33.451Z,22
2018-08-30T10:02:38.906Z,22
2018-08-30T10:03:44.417Z,22
2018-08-30T10:04:50.097Z,22
2018-08-30T10:05:55.476Z,22
2018-08-30T10:07:00.727Z,22
2018-08-30T10:08:05.308Z,22
2018-08-30T10:09:10.189Z,22
2018-08-30T10:10:15.681Z,22
2018-08-30T10:11:21.131Z,22
2018-08-30T10:12:26.298Z,22
2018-08-30T10:13:31.180Z,22
2018-08-30T10:14:36.149Z,22.1
2018-08-30T10:15:41.903Z,22
2018-08-30T10:16:47.197Z,22
2018-08-30T10:17:52.396Z,22
2018-08-30T10:18:58.257Z,22
2018-08-30T10:20:03.762Z,22
2018-08-30T10:21:08.956Z,22.1
2018-08-30T10:22:14.092Z,22.1
2018-08-30T10:23:19.577Z,22.1
2018-08-30T10:24:24.441Z,22.1
2018-08-30T10:25:44.420Z,22.1
2018-08-30T10:26:49.148Z,22.1
2018-08-30T10:27:54.541Z,22.1
2018-08-30T10:28:59.783Z,22.1
2018-08-30T10:30:04.944Z,22.1
2018-08-30T10:31:10.706Z,22.1
2018-08-30T10:32:15.616Z,22.1
2018-08-30T10:33:20.832Z,22.2
2018-08-30T10:34:41.041Z,22.2
2018-08-30T10:35:46.526Z,22.2
2018-08-30T10:36:52.262Z,22.2
2018-08-30T10:37:58.049Z,22.2
2018-08-30T10:39:02.937Z,22.2
2018-08-30T10:40:08.835Z,22.2
2018-08-30T10:41:13.729Z,22.2
2018-08-30T10:42:19.171Z,22.2
2018-08-30T10:43:24.736Z,22.2
2018-08-30T10:44:30.229Z,22.2
2018-08-30T10:45:35.264Z,22.3
2018-08-30T10:46:40.139Z,22.3
2018-08-30T10:47:45.094Z,22.3
2018-08-30T10:48:50.626Z,22.3
2018-08-30T10:49:55.884Z,22.3
2018-08-30T10:51:01.894Z,22.3
2018-08-30T10:52:06.749Z,22.3
2018-08-30T10:53:12.203Z,22.3
2018-08-30T10:54:17.750Z,22.3
2018-08-30T10:55:23.282Z,22.3
2018-08-30T10:56:27.963Z,22.3
2018-08-30T10:57:33.511Z,22.3
2018-08-30T10:58:38.707Z,22.3
2018-08-30T10:59:44.144Z,22.3
2018-08-30T11:00:49.070Z,22.3
2018-08-30T11:01:54.004Z,22.3
2018-08-30T11:02:59.183Z,22.3
2018-08-30T11:04:04.463Z,22.3
2018-08-30T11:05:09.793Z,22.3
2018-08-30T11:06:15.024Z,22.3
2018-08-30T11:07:20.421Z,22.3
2018-08-30T11:08:25.328Z,22.3
2018-08-30T11:09:30.747Z,22.3
2018-08-30T11:10:35.912Z,22.3
2018-08-30T11:11:41.083Z,22.3
2018-08-30T11:12:46.866Z,22.4
2018-08-30T11:13:52.374Z,22.3
2018-08-30T11:14:56.677Z,22.3
2018-08-30T11:16:02.142Z,22.3
2018-08-30T11:17:07.397Z,22.3
2018-08-30T11:18:12.612Z,22.3
2018-08-30T11:19:18.349Z,22.3
2018-08-30T11:20:23.646Z,22.3
2018-08-30T11:21:29.370Z,22.3
2018-08-30T11:22:34.875Z,22.3
2018-08-30T11:23:40.411Z,22.3
2018-08-30T11:24:45.143Z,22.3
2018-08-30T11:25:50.367Z,22.3
2018-08-30T11:26:55.353Z,22.3
2018-08-30T11:28:00.602Z,22.3
2018-08-30T11:29:04.930Z,22.3
2018-08-30T11:30:10.107Z,22.3
2018-08-30T11:31:15.611Z,22.3
2018-08-30T11:32:20.776Z,22.3
2018-08-30T11:33:26.541Z,22.3
2018-08-30T11:34:32.055Z,22.4
2018-08-30T11:35:37.303Z,22.4
2018-08-30T11:36:43.161Z,22.4
2018-08-30T11:37:48.603Z,22.3
2018-08-30T11:38:53.485Z,22.4
2018-08-30T11:39:59.297Z,22.4
2018-08-30T11:41:03.885Z,22.4
2018-08-30T11:42:08.790Z,22.4
2018-08-30T11:43:14.551Z,22.4
2018-08-30T11:44:20.478Z,22.4
2018-08-30T11:46:45.972Z,22.4
2018-08-30T11:47:51.257Z,22.4
2018-08-30T11:48:56.830Z,22.4
2018-08-30T11:50:02.297Z,22.4
2018-08-30T11:51:06.405Z,22.4
2018-08-30T11:52:12.396Z,22.4
2018-08-30T11:53:17.803Z,22.4
2018-08-30T11:54:22.492Z,22.4
2018-08-30T11:55:42.695Z,22.4
2018-08-30T11:56:47.592Z,22.4
2018-08-30T11:57:53.420Z,22.4
2018-08-30T11:58:58.894Z,22.4
2018-08-30T12:00:03.796Z,22.4
2018-08-30T12:01:09.583Z,22.4
2018-08-30T12:02:14.478Z,22.4
2018-08-30T12:03:19.985Z,22.3
2018-08-30T12:04:25.665Z,22.4
2018-08-30T12:05:30.545Z,22.4
2018-08-30T12:06:36.369Z,22.4
2018-08-30T12:07:41.601Z,22.4
2018-08-30T12:08:46.774Z,22.4
2018-08-30T12:09:52.203Z,22.4
2018-08-30T12:10:57.754Z,22.4
2018-08-30T12:12:03.768Z,22.4
2018-08-30T12:13:09.372Z,22.4
2018-08-30T12:14:14.815Z,22.4
2018-08-30T12:15:19.747Z,22.4
2018-08-30T12:16:39.844Z,22.4
2018-08-30T12:17:45.018Z,22.4
2018-08-30T12:18:50.333Z,22.4
2018-08-30T12:19:55.465Z,22.4
2018-08-30T12:21:00.545Z,22.4
2018-08-30T12:22:05.414Z,22.4
2018-08-30T12:23:10.860Z,22.4
2018-08-30T12:24:16.030Z,22.4
2018-08-30T12:25:21.470Z,22.4
2018-08-30T12:26:26.367Z,22.4
2018-08-30T12:27:32.086Z,22.4
2018-08-30T12:28:37.681Z,22.4
2018-08-30T12:29:43.841Z,22.4
2018-08-30T12:30:49.368Z,22.4
2018-08-30T12:31:54.985Z,22.4
2018-08-30T12:33:00.802Z,22.4
2018-08-30T12:34:06.503Z,22.4
2018-08-30T12:35:12.469Z,22.4
2018-08-30T12:36:19.429Z,22.4
2018-08-30T12:37:25.017Z,22.4
2018-08-30T12:38:30.588Z,22.4
2018-08-30T12:39:35.744Z,22.4
2018-08-30T12:40:41.835Z,22.4
2018-08-30T12:41:47.592Z,22.4
2018-08-30T12:42:53.469Z,22.4
2018-08-30T12:44:01.074Z,22.4
2018-08-30T12:45:05.886Z,22.5
2018-08-30T12:46:11.816Z,22.5
2018-08-30T12:47:17.736Z,22.4
2018-08-30T12:48:23.023Z,22.5
2018-08-30T12:49:43.200Z,22.5
2018-08-30T12:50:48.647Z,22.5
2018-08-30T12:51:55.749Z,22.5
2018-08-30T12:53:01.774Z,22.5
2018-08-30T12:54:07.562Z,22.4
2018-08-30T12:55:14.902Z,22.5
2018-08-30T12:56:21.668Z,22.5
2018-08-30T12:57:28.135Z,22.5
2018-08-30T12:58:34.761Z,22.5
2018-08-30T12:59:40.455Z,22.5
2018-08-30T13:00:47.421Z,22.5
2018-08-30T13:01:53.640Z,22.5
2018-08-30T13:02:59.700Z,22.5
2018-08-30T13:04:07.270Z,22.5
2018-08-30T13:05:15.252Z,22.5
2018-08-30T13:06:23.260Z,22.5
2018-08-30T13:07:31.543Z,22.5
2018-08-30T13:08:39.080Z,22.5
2018-08-30T13:09:47.666Z,22.5
2018-08-30T13:10:53.523Z,22.5
2018-08-30T13:12:03.633Z,22.5
2018-08-30T13:13:12.842Z,22.5
2018-08-30T13:14:21.137Z,22.5
2018-08-30T13:15:30.586Z,22.5
2018-08-30T13:16:38.167Z,22.5
2018-08-30T13:17:45.463Z,22.5
2018-08-30T13:18:52.857Z,22.5
2018-08-30T13:19:58.562Z,22.5
2018-08-30T13:21:06.662Z,22.5
2018-08-30T13:22:15.215Z,22.5
2018-08-30T13:23:25.195Z,22.5
2018-08-30T13:24:33.681Z,22.5
2018-08-30T13:25:42.456Z,22.5
2018-08-30T13:26:51.951Z,22.5
2018-08-30T13:28:00.721Z,22.5
2018-08-30T13:29:09.563Z,22.5
2018-08-30T13:30:18.166Z,22.5
2018-08-30T13:31:28.557Z,22.5
2018-08-30T13:32:37.909Z,22.5
2018-08-30T13:33:48.283Z,22.5
2018-08-30T13:34:56.729Z,22.5
2018-08-30T13:36:07.267Z,22.5
2018-08-30T13:37:16.930Z,22.5
2018-08-30T13:38:24.981Z,22.4
2018-08-30T13:39:35.616Z,22.4
2018-08-30T13:40:46.352Z,22.4
2018-08-30T13:41:56.103Z,22.4
2018-08-30T13:43:07.597Z,22.4
2018-08-30T13:44:17.229Z,22.4
2018-08-30T13:45:28.052Z,22.4
2018-08-30T13:46:37.418Z,22.4
2018-08-30T13:47:45.844Z,22.4
2018-08-30T13:48:55.622Z,22.4
2018-08-30T13:50:04.292Z,22.4
2018-08-30T13:51:14.027Z,22.4
2018-08-30T13:52:24.394Z,22.4
2018-08-30T13:53:31.990Z,22.4
2018-08-30T13:54:40.786Z,22.4
2018-08-30T13:55:49.840Z,22.4
2018-08-30T13:56:58.799Z,22.4
2018-08-30T13:58:09.642Z,22.4
2018-08-30T13:59:19.229Z,22.4
2018-08-30T14:00:31.557Z,22.4
2018-08-30T14:01:44.148Z,22.4
2018-08-30T14:02:54.902Z,22.4
2018-08-30T14:04:03.198Z,22.4
2018-08-30T14:05:10.582Z,22.4
2018-08-30T14:06:20.768Z,22.4
2018-08-30T14:07:29.852Z,22.4
2018-08-30T14:08:37.383Z,22.4
2018-08-30T14:09:46.096Z,22.4
2018-08-30T14:10:53.832Z,22.4
2018-08-30T14:12:04.037Z,22.4
2018-08-30T14:13:15.098Z,22.4
2018-08-30T14:14:24.806Z,22.4
2018-08-30T14:15:33.724Z,22.4
2018-08-30T14:16:40.437Z,22.4
2018-08-30T14:17:45.958Z,22.4
2018-08-30T14:18:52.733Z,22.4
2018-08-30T14:19:58.070Z,22.4
2018-08-30T14:21:03.649Z,22.4
2018-08-30T14:22:08.747Z,22.4
2018-08-30T14:23:13.981Z,22.3
2018-08-30T14:24:19.523Z,22.4
2018-08-30T14:25:25.084Z,22.4
2018-08-30T14:26:30.069Z,22.4
2018-08-30T14:27:36.094Z,22.4
2018-08-30T14:28:41.206Z,22.4
2018-08-30T14:29:46.757Z,22.4
2018-08-30T14:30:52.445Z,22.4
2018-08-30T14:31:57.676Z,22.4
2018-08-30T14:33:03.450Z,22.4
2018-08-30T14:34:09.978Z,22.4
2018-08-30T14:35:14.742Z,22.4
2018-08-30T14:36:19.678Z,22.4
2018-08-30T14:37:25.277Z,22.4
2018-08-30T14:38:31.056Z,22.3
2018-08-30T14:39:36.887Z,22.4
2018-08-30T14:40:42.130Z,22.4
2018-08-30T14:41:48.345Z,22.4
2018-08-30T14:42:55.548Z,22.4
2018-08-30T14:44:01.091Z,22.4
2018-08-30T14:45:06.083Z,22.4
2018-08-30T14:46:11.993Z,22.4
2018-08-30T14:47:17.308Z,22.4
2018-08-30T14:48:23.372Z,22.4
2018-08-30T14:49:43.485Z,22.4
2018-08-30T14:50:48.637Z,22.4
2018-08-30T14:51:54.242Z,22.4
2018-08-30T14:52:59.272Z,22.4
2018-08-30T14:54:05.047Z,22.4
2018-08-30T14:55:11.023Z,22.4
2018-08-30T14:56:15.783Z,22.4
2018-08-30T14:57:21.488Z,22.4
2018-08-30T14:58:27.056Z,22.4
2018-08-30T14:59:32.285Z,22.4